sensor_id;sensor_type;location;lat;lon;timestamp;P1;P2;P0
55754;PMS5003;41674;52.290;-1.474;2022-09-12T10:17:38;7;6;
55754;PMS5003;41674;52.290;-1.474;2022-09-12T10:20:36;6;6;
55754;PMS5003;41674;52.290;-1.474;2022-09-12T10:23:20;7;5;
55754;PMS5003;41674;52.290;-1.474;2022-09-12T10:26:07;5;5;
55754;PMS5003;41674;52.290;-1.474;2022-09-12T10:28:41;5;5;
55754;PMS5003;41674;52.290;-1.474;2022-09-12T10:31:22;6;5;
55754;PMS5003;41674;52.290;-1.474;2022-09-12T10:33:57;4;4;
55754;PMS5003;41674;52.290;-1.474;2022-09-12T10:36:34;5;5;
55754;PMS5003;41674;52.290;-1.474;2022-09-12T10:39:06;5;5;
55754;PMS5003;41674;52.290;-1.474;2022-09-12T10:41:47;3;3;
55754;PMS5003;41674;52.290;-1.474;2022-09-12T10:44:39;5;5;
55754;PMS5003;41674;52.290;-1.474;2022-09-12T11:00:21;6;4;
55754;PMS5003;41674;52.290;-1.474;2022-09-12T11:02:48;7;5;
55754;PMS5003;41674;52.290;-1.474;2022-09-12T11:05:13;5;5;
55754;PMS5003;41674;52.290;-1.474;2022-09-12T11:07:40;4;4;
55754;PMS5003;41674;52.290;-1.474;2022-09-12T11:10:05;7;7;
55754;PMS5003;41674;52.290;-1.474;2022-09-12T11:12:29;8;7;
55754;PMS5003;41674;52.290;-1.474;2022-09-12T11:14:56;5;5;
55754;PMS5003;41674;52.290;-1.474;2022-09-12T11:17:21;8;8;
55754;PMS5003;41674;52.290;-1.474;2022-09-12T11:19:46;6;5;
55754;PMS5003;41674;52.290;-1.474;2022-09-12T11:22:12;9;7;
55754;PMS5003;41674;52.290;-1.474;2022-09-12T11:24:36;8;7;
55754;PMS5003;41674;52.290;-1.474;2022-09-12T11:27:02;6;6;
55754;PMS5003;41674;52.290;-1.474;2022-09-12T11:32:01;9;8;
55754;PMS5003;41674;52.290;-1.474;2022-09-12T11:34:23;6;6;
55754;PMS5003;41674;52.290;-1.474;2022-09-12T11:36:47;9;8;
55754;PMS5003;41674;52.290;-1.474;2022-09-12T11:39:12;5;5;
55754;PMS5003;41674;52.290;-1.474;2022-09-12T11:41:37;6;5;
55754;PMS5003;41674;52.290;-1.474;2022-09-12T11:44:02;7;6;
55754;PMS5003;41674;52.290;-1.474;2022-09-12T11:46:28;7;7;
55754;PMS5003;41674;52.290;-1.474;2022-09-12T11:48:53;6;6;
55754;PMS5003;41674;52.290;-1.474;2022-09-12T11:51:18;8;8;
55754;PMS5003;41674;52.290;-1.474;2022-09-12T11:53:42;6;6;
55754;PMS5003;41674;52.290;-1.474;2022-09-12T11:56:09;7;7;
55754;PMS5003;41674;52.290;-1.474;2022-09-12T11:58:32;7;7;
55754;PMS5003;41674;52.290;-1.474;2022-09-12T12:01:09;9;6;
55754;PMS5003;41674;52.290;-1.474;2022-09-12T12:03:25;7;7;
55754;PMS5003;41674;52.290;-1.474;2022-09-12T12:05:50;8;8;
55754;PMS5003;41674;52.290;-1.474;2022-09-12T12:08:13;8;7;
55754;PMS5003;41674;52.290;-1.474;2022-09-12T12:10:39;6;6;
55754;PMS5003;41674;52.290;-1.474;2022-09-12T12:13:04;8;6;
55754;PMS5003;41674;52.290;-1.474;2022-09-12T12:15:29;7;6;
55754;PMS5003;41674;52.290;-1.474;2022-09-12T12:18:00;7;7;
55754;PMS5003;41674;52.290;-1.474;2022-09-12T12:20:19;5;5;
55754;PMS5003;41674;52.290;-1.474;2022-09-12T12:30:00;5;5;
55754;PMS5003;41674;52.290;-1.474;2022-09-12T12:32:31;4;4;
55754;PMS5003;41674;52.290;-1.474;2022-09-12T12:42:06;8;8;
55754;PMS5003;41674;52.290;-1.474;2022-09-12T12:59:59;4;4;
55754;PMS5003;41674;52.290;-1.474;2022-09-12T13:02:29;6;6;
55754;PMS5003;41674;52.290;-1.474;2022-09-12T13:04:58;5;5;
55754;PMS5003;41674;52.290;-1.474;2022-09-12T13:07:29;5;5;
55754;PMS5003;41674;52.290;-1.474;2022-09-12T13:09:57;6;6;
55754;PMS5003;41674;52.290;-1.474;2022-09-12T13:12:27;6;6;
55754;PMS5003;41674;52.290;-1.474;2022-09-12T13:14:56;5;5;
55754;PMS5003;41674;52.290;-1.474;2022-09-12T13:17:27;7;7;
55754;PMS5003;41674;52.290;-1.474;2022-09-12T13:22:24;5;5;
55754;PMS5003;41674;52.290;-1.474;2022-09-12T13:24:53;5;5;
55754;PMS5003;41674;52.290;-1.474;2022-09-12T13:27:23;6;6;
55754;PMS5003;41674;52.290;-1.474;2022-09-12T13:32:22;7;5;
55754;PMS5003;41674;52.290;-1.474;2022-09-12T13:35:01;4;4;
55754;PMS5003;41674;52.290;-1.474;2022-09-12T13:37:26;7;7;
55754;PMS5003;41674;52.290;-1.474;2022-09-12T13:39:52;7;7;
55754;PMS5003;41674;52.290;-1.474;2022-09-12T13:44:50;6;5;
55754;PMS5003;41674;52.290;-1.474;2022-09-12T13:47:20;5;5;
55754;PMS5003;41674;52.290;-1.474;2022-09-12T13:49:48;10;6;
55754;PMS5003;41674;52.290;-1.474;2022-09-12T13:52:19;6;4;
55754;PMS5003;41674;52.290;-1.474;2022-09-12T13:54:47;5;5;
55754;PMS5003;41674;52.290;-1.474;2022-09-12T13:57:26;6;6;
55754;PMS5003;41674;52.290;-1.474;2022-09-12T13:59:46;6;6;
55754;PMS5003;41674;52.290;-1.474;2022-09-12T14:02:16;6;4;
55754;PMS5003;41674;52.290;-1.474;2022-09-12T14:04:46;5;4;
55754;PMS5003;41674;52.290;-1.474;2022-09-12T14:07:15;4;4;
55754;PMS5003;41674;52.290;-1.474;2022-09-12T14:09:45;5;5;
55754;PMS5003;41674;52.290;-1.474;2022-09-12T14:12:17;5;4;
55754;PMS5003;41674;52.290;-1.474;2022-09-12T14:14:45;3;3;
55754;PMS5003;41674;52.290;-1.474;2022-09-12T14:17:14;4;4;
55754;PMS5003;41674;52.290;-1.474;2022-09-12T14:19:42;5;5;
55754;PMS5003;41674;52.290;-1.474;2022-09-12T14:22:12;6;6;
55754;PMS5003;41674;52.290;-1.474;2022-09-12T14:24:41;3;3;
55754;PMS5003;41674;52.290;-1.474;2022-09-12T14:27:11;5;5;
55754;PMS5003;41674;52.290;-1.474;2022-09-12T14:29:40;4;4;
55754;PMS5003;41674;52.290;-1.474;2022-09-12T14:32:14;5;4;
55754;PMS5003;41674;52.290;-1.474;2022-09-12T14:34:39;4;4;
55754;PMS5003;41674;52.290;-1.474;2022-09-12T14:37:10;8;5;
55754;PMS5003;41674;52.290;-1.474;2022-09-12T14:39:38;5;5;
55754;PMS5003;41674;52.290;-1.474;2022-09-12T14:42:10;6;5;
55754;PMS5003;41674;52.290;-1.474;2022-09-12T14:44:37;3;2;
55754;PMS5003;41674;52.290;-1.474;2022-09-12T14:47:11;7;5;
55754;PMS5003;41674;52.290;-1.474;2022-09-12T14:49:36;3;3;
55754;PMS5003;41674;52.290;-1.474;2022-09-12T14:52:06;5;5;
55754;PMS5003;41674;52.290;-1.474;2022-09-12T14:54:36;2;2;
55754;PMS5003;41674;52.290;-1.474;2022-09-12T14:57:05;4;4;
55754;PMS5003;41674;52.290;-1.474;2022-09-12T14:59:36;4;4;
55754;PMS5003;41674;52.290;-1.474;2022-09-12T15:04:36;3;3;
55754;PMS5003;41674;52.290;-1.474;2022-09-12T15:09:32;3;3;
55754;PMS5003;41674;52.290;-1.474;2022-09-12T15:12:01;2;2;
55754;PMS5003;41674;52.290;-1.474;2022-09-12T15:14:31;6;3;
55754;PMS5003;41674;52.290;-1.474;2022-09-12T15:17:00;5;5;
55754;PMS5003;41674;52.290;-1.474;2022-09-12T15:19:30;6;3;
55754;PMS5003;41674;52.290;-1.474;2022-09-12T15:21:59;5;5;
55754;PMS5003;41674;52.290;-1.474;2022-09-12T15:24:29;2;2;
55754;PMS5003;41674;52.290;-1.474;2022-09-12T15:26:58;3;3;
55754;PMS5003;41674;52.290;-1.474;2022-09-12T15:29:28;6;5;
55754;PMS5003;41674;52.290;-1.474;2022-09-12T15:31:57;4;4;
55754;PMS5003;41674;52.290;-1.474;2022-09-12T15:34:27;3;3;
55754;PMS5003;41674;52.290;-1.474;2022-09-12T15:36:56;5;5;
55754;PMS5003;41674;52.290;-1.474;2022-09-12T15:39:25;6;4;
55754;PMS5003;41674;52.290;-1.474;2022-09-12T15:41:55;5;5;
55754;PMS5003;41674;52.290;-1.474;2022-09-12T15:44:25;7;3;
55754;PMS5003;41674;52.290;-1.474;2022-09-12T15:46:54;2;2;
55754;PMS5003;41674;52.290;-1.474;2022-09-12T15:49:23;4;3;
55754;PMS5003;41674;52.290;-1.474;2022-09-12T15:51:53;3;3;
55754;PMS5003;41674;52.290;-1.474;2022-09-12T15:54:22;2;2;
55754;PMS5003;41674;52.290;-1.474;2022-09-12T15:56:52;4;4;
55754;PMS5003;41674;52.290;-1.474;2022-09-12T15:59:21;7;6;
55754;PMS5003;41674;52.290;-1.474;2022-09-12T16:01:51;5;4;
55754;PMS5003;41674;52.290;-1.474;2022-09-12T16:19:40;5;4;
55754;PMS5003;41674;52.290;-1.474;2022-09-12T16:22:10;3;3;
55754;PMS5003;41674;52.290;-1.474;2022-09-12T16:24:39;4;4;
55754;PMS5003;41674;52.290;-1.474;2022-09-12T16:49:12;3;3;
55754;PMS5003;41674;52.290;-1.474;2022-09-12T16:51:42;3;3;
55754;PMS5003;41674;52.290;-1.474;2022-09-12T16:54:12;4;4;
55754;PMS5003;41674;52.290;-1.474;2022-09-12T16:56:41;4;4;
55754;PMS5003;41674;52.290;-1.474;2022-09-12T16:59:10;5;5;
55754;PMS5003;41674;52.290;-1.474;2022-09-12T17:01:40;5;5;
55754;PMS5003;41674;52.290;-1.474;2022-09-12T17:04:14;5;5;
55754;PMS5003;41674;52.290;-1.474;2022-09-12T17:06:39;5;5;
55754;PMS5003;41674;52.290;-1.474;2022-09-12T17:09:08;4;4;
55754;PMS5003;41674;52.290;-1.474;2022-09-12T17:11:38;2;2;
55754;PMS5003;41674;52.290;-1.474;2022-09-12T17:14:07;4;3;
55754;PMS5003;41674;52.290;-1.474;2022-09-12T17:16:38;3;3;
55754;PMS5003;41674;52.290;-1.474;2022-09-12T17:19:07;3;3;
55754;PMS5003;41674;52.290;-1.474;2022-09-12T17:21:36;3;3;
55754;PMS5003;41674;52.290;-1.474;2022-09-12T17:24:05;5;4;
55754;PMS5003;41674;52.290;-1.474;2022-09-12T17:26:35;2;2;
55754;PMS5003;41674;52.290;-1.474;2022-09-12T17:29:04;4;4;
55754;PMS5003;41674;52.290;-1.474;2022-09-12T17:31:34;4;4;
55754;PMS5003;41674;52.290;-1.474;2022-09-12T17:34:03;7;5;
55754;PMS5003;41674;52.290;-1.474;2022-09-12T17:36:33;5;5;
55754;PMS5003;41674;52.290;-1.474;2022-09-12T17:39:07;7;6;
55754;PMS5003;41674;52.290;-1.474;2022-09-12T17:41:32;4;4;
55754;PMS5003;41674;52.290;-1.474;2022-09-12T17:44:02;6;5;
55754;PMS5003;41674;52.290;-1.474;2022-09-12T17:46:32;5;5;
55754;PMS5003;41674;52.290;-1.474;2022-09-12T17:49:01;4;4;
55754;PMS5003;41674;52.290;-1.474;2022-09-12T17:51:30;3;3;
55754;PMS5003;41674;52.290;-1.474;2022-09-12T17:54:00;5;4;
55754;PMS5003;41674;52.290;-1.474;2022-09-12T17:56:29;5;4;
55754;PMS5003;41674;52.290;-1.474;2022-09-12T17:58:58;5;4;
55754;PMS5003;41674;52.290;-1.474;2022-09-12T18:01:33;5;5;
55754;PMS5003;41674;52.290;-1.474;2022-09-12T18:03:58;5;5;
55754;PMS5003;41674;52.290;-1.474;2022-09-12T18:06:27;6;4;
55754;PMS5003;41674;52.290;-1.474;2022-09-12T18:08:58;5;5;
55754;PMS5003;41674;52.290;-1.474;2022-09-12T18:11:26;4;4;
55754;PMS5003;41674;52.290;-1.474;2022-09-12T18:13:56;5;4;
55754;PMS5003;41674;52.290;-1.474;2022-09-12T18:16:25;5;4;
55754;PMS5003;41674;52.290;-1.474;2022-09-12T18:18:54;5;5;
55754;PMS5003;41674;52.290;-1.474;2022-09-12T18:21:29;5;4;
55754;PMS5003;41674;52.290;-1.474;2022-09-12T18:26:23;7;6;
55754;PMS5003;41674;52.290;-1.474;2022-09-12T18:28:52;7;6;
55754;PMS5003;41674;52.290;-1.474;2022-09-12T18:31:23;6;5;
55754;PMS5003;41674;52.290;-1.474;2022-09-12T18:33:51;7;6;
55754;PMS5003;41674;52.290;-1.474;2022-09-12T18:36:21;4;4;
55754;PMS5003;41674;52.290;-1.474;2022-09-12T18:38:51;6;5;
55754;PMS5003;41674;52.290;-1.474;2022-09-12T18:41:25;4;4;
55754;PMS5003;41674;52.290;-1.474;2022-09-12T18:43:52;3;3;
55754;PMS5003;41674;52.290;-1.474;2022-09-12T18:46:19;5;5;
55754;PMS5003;41674;52.290;-1.474;2022-09-12T18:48:48;7;6;
55754;PMS5003;41674;52.290;-1.474;2022-09-12T18:51:19;5;5;
55754;PMS5003;41674;52.290;-1.474;2022-09-12T18:53:48;5;5;
55754;PMS5003;41674;52.290;-1.474;2022-09-12T18:56:17;6;6;
55754;PMS5003;41674;52.290;-1.474;2022-09-12T18:58:48;6;6;
55754;PMS5003;41674;52.290;-1.474;2022-09-12T19:01:16;6;6;
55754;PMS5003;41674;52.290;-1.474;2022-09-12T19:03:46;6;5;
55754;PMS5003;41674;52.290;-1.474;2022-09-12T19:06:20;6;5;
55754;PMS5003;41674;52.290;-1.474;2022-09-12T19:08:55;5;5;
55754;PMS5003;41674;52.290;-1.474;2022-09-12T19:11:14;6;6;
55754;PMS5003;41674;52.290;-1.474;2022-09-12T19:13:44;5;4;
55754;PMS5003;41674;52.290;-1.474;2022-09-12T19:16:14;8;8;
55754;PMS5003;41674;52.290;-1.474;2022-09-12T19:18:42;7;5;
55754;PMS5003;41674;52.290;-1.474;2022-09-12T19:21:14;5;5;
55754;PMS5003;41674;52.290;-1.474;2022-09-12T19:23:42;6;5;
55754;PMS5003;41674;52.290;-1.474;2022-09-12T19:26:12;5;3;
55754;PMS5003;41674;52.290;-1.474;2022-09-12T19:28:41;5;5;
55754;PMS5003;41674;52.290;-1.474;2022-09-12T19:31:10;7;6;
55754;PMS5003;41674;52.290;-1.474;2022-09-12T19:33:40;6;6;
55754;PMS5003;41674;52.290;-1.474;2022-09-12T19:36:15;5;5;
55754;PMS5003;41674;52.290;-1.474;2022-09-12T19:38:39;9;7;
55754;PMS5003;41674;52.290;-1.474;2022-09-12T19:41:09;5;5;
55754;PMS5003;41674;52.290;-1.474;2022-09-12T19:43:38;5;5;
55754;PMS5003;41674;52.290;-1.474;2022-09-12T19:46:12;8;6;
55754;PMS5003;41674;52.290;-1.474;2022-09-12T19:48:37;5;5;
55754;PMS5003;41674;52.290;-1.474;2022-09-12T19:51:07;8;6;
55754;PMS5003;41674;52.290;-1.474;2022-09-12T19:53:41;5;5;
55754;PMS5003;41674;52.290;-1.474;2022-09-12T19:56:06;9;8;
55754;PMS5003;41674;52.290;-1.474;2022-09-12T19:58:35;6;4;
55754;PMS5003;41674;52.290;-1.474;2022-09-12T20:01:10;7;7;
55754;PMS5003;41674;52.290;-1.474;2022-09-12T20:03:39;8;8;
55754;PMS5003;41674;52.290;-1.474;2022-09-12T20:08:38;9;7;
55754;PMS5003;41674;52.290;-1.474;2022-09-12T20:11:03;7;6;
55754;PMS5003;41674;52.290;-1.474;2022-09-12T20:13:37;9;8;
55754;PMS5003;41674;52.290;-1.474;2022-09-12T20:16:05;12;11;
55754;PMS5003;41674;52.290;-1.474;2022-09-12T20:18:31;12;10;
55754;PMS5003;41674;52.290;-1.474;2022-09-12T20:21:06;14;13;
55754;PMS5003;41674;52.290;-1.474;2022-09-12T20:23:30;10;9;
55754;PMS5003;41674;52.290;-1.474;2022-09-12T20:26:00;15;12;
55754;PMS5003;41674;52.290;-1.474;2022-09-12T20:28:29;10;10;
55754;PMS5003;41674;52.290;-1.474;2022-09-12T20:30:59;11;11;
55754;PMS5003;41674;52.290;-1.474;2022-09-12T20:33:29;11;10;
55754;PMS5003;41674;52.290;-1.474;2022-09-12T20:36:00;12;12;
55754;PMS5003;41674;52.290;-1.474;2022-09-12T20:38:28;14;12;
55754;PMS5003;41674;52.290;-1.474;2022-09-12T20:40:57;10;10;
55754;PMS5003;41674;52.290;-1.474;2022-09-12T20:43:26;11;11;
55754;PMS5003;41674;52.290;-1.474;2022-09-12T20:45:56;12;12;
55754;PMS5003;41674;52.290;-1.474;2022-09-12T20:48:25;9;9;
55754;PMS5003;41674;52.290;-1.474;2022-09-12T20:50:57;12;12;
55754;PMS5003;41674;52.290;-1.474;2022-09-12T20:53:24;17;13;
55754;PMS5003;41674;52.290;-1.474;2022-09-12T20:55:54;10;10;
55754;PMS5003;41674;52.290;-1.474;2022-09-12T20:58:23;10;10;
55754;PMS5003;41674;52.290;-1.474;2022-09-12T21:00:53;10;10;
55754;PMS5003;41674;52.290;-1.474;2022-09-12T21:03:22;11;10;
55754;PMS5003;41674;52.290;-1.474;2022-09-12T21:05:52;11;9;
55754;PMS5003;41674;52.290;-1.474;2022-09-12T21:08:21;14;9;
55754;PMS5003;41674;52.290;-1.474;2022-09-12T21:10:51;10;10;
55754;PMS5003;41674;52.290;-1.474;2022-09-12T21:13:21;10;10;
55754;PMS5003;41674;52.290;-1.474;2022-09-12T21:18:20;10;10;
55754;PMS5003;41674;52.290;-1.474;2022-09-12T21:20:50;16;16;
55754;PMS5003;41674;52.290;-1.474;2022-09-12T21:23:19;13;13;
55754;PMS5003;41674;52.290;-1.474;2022-09-12T21:25:48;12;12;
55754;PMS5003;41674;52.290;-1.474;2022-09-12T21:28:17;11;11;
55754;PMS5003;41674;52.290;-1.474;2022-09-12T21:30:47;13;13;
55754;PMS5003;41674;52.290;-1.474;2022-09-12T21:33:16;11;11;
55754;PMS5003;41674;52.290;-1.474;2022-09-12T21:35:45;16;14;
55754;PMS5003;41674;52.290;-1.474;2022-09-12T21:38:15;13;13;
55754;PMS5003;41674;52.290;-1.474;2022-09-12T21:40:44;14;13;
55754;PMS5003;41674;52.290;-1.474;2022-09-12T21:43:13;10;9;
55754;PMS5003;41674;52.290;-1.474;2022-09-12T21:45:43;11;11;
55754;PMS5003;41674;52.290;-1.474;2022-09-12T21:48:12;14;12;
55754;PMS5003;41674;52.290;-1.474;2022-09-12T21:50:42;13;11;
55754;PMS5003;41674;52.290;-1.474;2022-09-12T21:53:11;13;12;
55754;PMS5003;41674;52.290;-1.474;2022-09-12T21:55:41;13;12;
55754;PMS5003;41674;52.290;-1.474;2022-09-12T21:58:10;14;13;
55754;PMS5003;41674;52.290;-1.474;2022-09-12T22:00:39;14;13;
55754;PMS5003;41674;52.290;-1.474;2022-09-12T22:03:09;14;14;
55754;PMS5003;41674;52.290;-1.474;2022-09-12T22:05:38;11;11;
55754;PMS5003;41674;52.290;-1.474;2022-09-12T22:08:08;14;14;
55754;PMS5003;41674;52.290;-1.474;2022-09-12T22:10:37;12;12;
55754;PMS5003;41674;52.290;-1.474;2022-09-12T22:13:07;15;14;
55754;PMS5003;41674;52.290;-1.474;2022-09-12T22:15:36;15;14;
55754;PMS5003;41674;52.290;-1.474;2022-09-12T22:18:06;16;14;
55754;PMS5003;41674;52.290;-1.474;2022-09-12T22:20:36;18;17;
55754;PMS5003;41674;52.290;-1.474;2022-09-12T22:23:05;18;16;
55754;PMS5003;41674;52.290;-1.474;2022-09-12T22:25:35;20;19;
55754;PMS5003;41674;52.290;-1.474;2022-09-12T22:28:04;15;15;
55754;PMS5003;41674;52.290;-1.474;2022-09-12T22:30:34;17;13;
55754;PMS5003;41674;52.290;-1.474;2022-09-12T22:33:03;15;15;
55754;PMS5003;41674;52.290;-1.474;2022-09-12T22:35:32;13;12;
55754;PMS5003;41674;52.290;-1.474;2022-09-12T22:38:02;11;11;
55754;PMS5003;41674;52.290;-1.474;2022-09-12T22:40:31;13;12;
55754;PMS5003;41674;52.290;-1.474;2022-09-12T22:43:01;12;12;
55754;PMS5003;41674;52.290;-1.474;2022-09-12T22:45:30;13;9;
55754;PMS5003;41674;52.290;-1.474;2022-09-12T22:48:00;12;11;
55754;PMS5003;41674;52.290;-1.474;2022-09-12T22:50:29;13;13;
55754;PMS5003;41674;52.290;-1.474;2022-09-12T22:52:58;11;10;
55754;PMS5003;41674;52.290;-1.474;2022-09-12T22:55:28;11;11;
55754;PMS5003;41674;52.290;-1.474;2022-09-12T22:57:57;13;12;
55754;PMS5003;41674;52.290;-1.474;2022-09-12T23:00:28;12;10;
55754;PMS5003;41674;52.290;-1.474;2022-09-12T23:02:56;11;10;
55754;PMS5003;41674;52.290;-1.474;2022-09-12T23:05:26;9;8;
55754;PMS5003;41674;52.290;-1.474;2022-09-12T23:07:55;13;11;
55754;PMS5003;41674;52.290;-1.474;2022-09-12T23:10:24;8;8;
55754;PMS5003;41674;52.290;-1.474;2022-09-12T23:12:54;13;11;
55754;PMS5003;41674;52.290;-1.474;2022-09-12T23:15:23;13;12;
55754;PMS5003;41674;52.290;-1.474;2022-09-12T23:17:53;14;14;
55754;PMS5003;41674;52.290;-1.474;2022-09-12T23:20:22;8;8;
55754;PMS5003;41674;52.290;-1.474;2022-09-12T23:22:52;11;9;
55754;PMS5003;41674;52.290;-1.474;2022-09-12T23:25:21;9;7;
55754;PMS5003;41674;52.290;-1.474;2022-09-12T23:27:51;11;10;
55754;PMS5003;41674;52.290;-1.474;2022-09-12T23:30:20;10;10;
55754;PMS5003;41674;52.290;-1.474;2022-09-12T23:32:50;7;7;
55754;PMS5003;41674;52.290;-1.474;2022-09-12T23:35:19;7;6;
55754;PMS5003;41674;52.290;-1.474;2022-09-12T23:37:49;8;7;
55754;PMS5003;41674;52.290;-1.474;2022-09-12T23:40:18;7;7;
55754;PMS5003;41674;52.290;-1.474;2022-09-12T23:42:48;6;4;
55754;PMS5003;41674;52.290;-1.474;2022-09-12T23:45:18;4;3;
55754;PMS5003;41674;52.290;-1.474;2022-09-12T23:47:47;3;3;
55754;PMS5003;41674;52.290;-1.474;2022-09-12T23:50:17;3;3;
55754;PMS5003;41674;52.290;-1.474;2022-09-12T23:52:46;3;3;
55754;PMS5003;41674;52.290;-1.474;2022-09-12T23:55:16;3;2;
55754;PMS5003;41674;52.290;-1.474;2022-09-12T23:57:46;3;3;
